Weather at Comodoro Arturo Merino Benítez International Airport

Public forecast

Using degrees Celsius for public forecast. Weather courtesy of forecast.io.

Current aviation weather report (METAR) for Comodoro Arturo Merino Benítez International Airport

2024/05/29 21:00 (retrieved 12 minutes ago)

SCEL 292100Z 17005KT 8000 NSC 19/05 Q1019 NOSIG

Aviation forecast (TAF) for Comodoro Arturo Merino Benítez International Airport

2024/05/29 18:00 (retrieved 3 hours ago)

TAF SCEL 291600Z 2918/3018 VRB02KT 7000 NSC TX19/2919Z TN07/3009Z BECMG 2918/2920 18009KT CAVOK BECMG 3001/3003 15006KT BECMG 3008/3010 03004KT 8000 NSC BECMG 3015/3017 20010KT